Time;durP1;ratioP1;P1;durP2;ratioP2;P2;SDS_P1;SDS_P2;PMS_P1;PMS_P2;Temp;Humidity;BMP_temperature;BMP_pressure;BME280_temperature;BME280_humidity;BME280_pressure;Samples;Min_cycle;Max_cycle;Signal;HPM_P1;HPM_P2
2022/05/16 00:02:12;;;;;;;12.78;4.90;;;;;;;11.69;64.25;100361.14;1667877;84;21010;-70
2022/05/16 00:04:44;;;;;;;9.37;4.60;;;;;;;11.65;64.26;100355.88;1679574;84;21009;-70
2022/05/16 00:07:13;;;;;;;6.60;4.30;;;;;;;11.65;64.21;100362.56;1673084;84;21126;-70
2022/05/16 00:09:40;;;;;;;8.15;5.05;;;;;;;11.67;64.25;100361.03;1684434;84;21077;-69
2022/05/16 00:12:10;;;;;;;8.58;5.95;;;;;;;11.66;64.29;100366.08;1675744;84;21033;-69
2022/05/16 00:14:40;;;;;;;11.68;4.58;;;;;;;11.65;64.47;100365.23;1664612;84;21005;-69
2022/05/16 00:17:06;;;;;;;9.75;4.58;;;;;;;11.63;64.58;100367.27;1646247;86;21095;-69
2022/05/16 00:19:33;;;;;;;8.10;4.80;;;;;;;11.60;64.68;100368.17;1647743;84;21529;-69
2022/05/16 00:21:59;;;;;;;5.45;4.35;;;;;;;11.56;64.71;100367.73;1665405;85;21212;-69
2022/05/16 00:24:28;;;;;;;12.15;5.90;;;;;;;11.56;64.76;100370.91;1664010;84;21069;-70
2022/05/16 00:26:57;;;;;;;6.95;4.35;;;;;;;11.51;64.88;100371.52;1664381;86;21116;-70
2022/05/16 00:29:25;;;;;;;14.13;5.65;;;;;;;11.47;64.94;100373.73;1664714;85;21165;-68
2022/05/16 00:31:54;;;;;;;11.48;5.83;;;;;;;11.44;65.17;100371.96;1632629;87;21345;-69
2022/05/16 00:34:23;;;;;;;10.80;5.45;;;;;;;11.38;65.56;100370.89;1664830;85;21065;-69
2022/05/16 00:36:50;;;;;;;9.87;5.87;;;;;;;11.33;65.73;100371.97;1665021;84;21081;-70
2022/05/16 00:39:19;;;;;;;9.28;5.08;;;;;;;11.32;65.83;100373.48;1665470;85;21617;-69
2022/05/16 00:41:50;;;;;;;9.73;5.73;;;;;;;11.29;65.84;100366.70;1664933;85;21198;-69
2022/05/16 00:44:19;;;;;;;11.53;5.97;;;;;;;11.29;65.89;100362.70;1664937;85;20993;-69
2022/05/16 00:46:47;;;;;;;10.75;6.00;;;;;;;11.28;65.97;100372.55;1664759;85;21076;-70
2022/05/16 00:49:24;;;;;;;16.13;6.53;;;;;;;11.26;65.94;100371.08;1664939;84;21001;-68
2022/05/16 00:51:56;;;;;;;12.85;5.70;;;;;;;11.23;66.04;100369.63;1664718;85;21171;-69
2022/05/16 00:54:27;;;;;;;13.60;6.03;;;;;;;11.19;66.13;100372.37;1664718;85;21044;-69
2022/05/16 00:56:59;;;;;;;14.87;6.28;;;;;;;11.15;66.21;100372.92;1664810;85;21020;-69
2022/05/16 00:59:40;;;;;;;14.03;6.83;;;;;;;11.15;66.18;100374.26;1664815;86;21069;-68
2022/05/16 01:04:51;;;;;;;9.97;6.80;;;;;;;11.16;66.05;100374.59;1672392;84;21064;-68
2022/05/16 01:07:31;;;;;;;10.53;6.50;;;;;;;11.15;65.98;100375.59;1663953;85;21078;-69
2022/05/16 01:09:59;;;;;;;10.13;5.78;;;;;;;11.16;65.97;100371.92;1664484;85;21100;-70
2022/05/16 01:12:37;;;;;;;13.20;6.37;;;;;;;11.14;65.89;100375.30;1669996;84;21035;-70
2022/05/16 01:15:08;;;;;;;10.03;6.00;;;;;;;11.14;65.80;100374.78;1644379;86;21643;-69
2022/05/16 01:17:35;;;;;;;11.67;6.17;;;;;;;11.16;65.67;100370.59;1648073;86;21571;-69
2022/05/16 01:20:06;;;;;;;11.53;5.97;;;;;;;11.18;65.65;100366.70;1662141;85;21071;-71
2022/05/16 01:22:46;;;;;;;13.60;5.70;;;;;;;11.19;65.47;100373.70;1646180;85;21051;-69
2022/05/16 01:25:23;;;;;;;12.47;5.47;;;;;;;11.20;65.30;100365.18;1646817;86;21584;-69
2022/05/16 01:27:55;;;;;;;9.13;5.72;;;;;;;11.20;65.20;100360.66;1646615;86;21611;-69
2022/05/16 01:30:26;;;;;;;7.53;5.50;;;;;;;11.18;64.95;100360.03;1646710;86;21096;-69
2022/05/16 01:32:53;;;;;;;10.98;6.00;;;;;;;11.16;64.85;100360.73;1646603;86;21127;-69
2022/05/16 01:35:22;;;;;;;13.68;5.75;;;;;;;11.12;64.84;100363.47;1629653;86;21129;-69
2022/05/16 01:40:37;;;;;;;12.70;5.65;;;;;;;11.04;64.86;100364.95;1646502;86;21081;-68
2022/05/16 01:43:05;;;;;;;11.97;5.70;;;;;;;11.01;64.89;100370.14;1646565;86;21782;-68
2022/05/16 01:45:32;;;;;;;7.67;5.20;;;;;;;10.99;64.88;100364.17;1646369;86;21073;-68
2022/05/16 01:48:00;;;;;;;7.90;5.60;;;;;;;10.98;64.86;100367.02;1646273;85;21070;-69
2022/05/16 01:50:26;;;;;;;8.68;5.45;;;;;;;10.95;64.93;100371.42;1646600;85;21193;-69
2022/05/16 01:52:54;;;;;;;10.27;5.60;;;;;;;10.89;65.02;100366.34;1646317;86;21522;-70
2022/05/16 01:55:21;;;;;;;11.60;6.07;;;;;;;10.85;65.08;100379.22;1618034;85;21034;-69
2022/05/16 01:57:48;;;;;;;8.93;6.20;;;;;;;10.85;65.15;100369.04;1646476;86;21593;-70
2022/05/16 02:00:16;;;;;;;8.63;5.45;;;;;;;10.85;65.15;100374.38;1646704;85;21593;-68
2022/05/16 02:02:44;;;;;;;9.40;4.77;;;;;;;10.84;65.19;100374.07;1646721;85;21014;-69
2022/05/16 02:05:18;;;;;;;10.43;5.13;;;;;;;10.77;65.37;100367.83;1646428;86;22179;-69
2022/05/16 02:07:45;;;;;;;13.67;6.10;;;;;;;10.71;65.51;100374.75;1647618;85;21565;-68
2022/05/16 02:10:16;;;;;;;9.07;5.97;;;;;;;10.63;65.70;100367.69;1646321;85;21070;-68
2022/05/16 02:12:43;;;;;;;8.70;5.33;;;;;;;10.62;65.99;100364.69;1646407;85;21014;-69
2022/05/16 02:15:14;;;;;;;8.50;5.10;;;;;;;10.60;65.90;100369.39;1646499;85;21065;-69
2022/05/16 02:17:40;;;;;;;7.03;5.70;;;;;;;10.54;66.08;100367.48;1646552;85;21094;-70
2022/05/16 02:20:08;;;;;;;16.15;5.72;;;;;;;10.47;66.22;100366.09;1617195;87;21065;-69
2022/05/16 02:25:20;;;;;;;11.03;6.00;;;;;;;10.47;66.37;100367.91;1660642;85;21075;-69
2022/05/16 02:27:52;;;;;;;7.53;5.00;;;;;;;10.47;66.36;100368.75;1660746;85;21327;-69
2022/05/16 02:30:20;;;;;;;9.47;5.33;;;;;;;10.50;66.30;100366.20;1660696;85;21099;-69
2022/05/16 02:32:49;;;;;;;10.90;5.53;;;;;;;10.52;66.21;100372.17;1635916;86;21085;-69
2022/05/16 02:35:17;;;;;;;8.23;4.67;;;;;;;10.51;66.29;100370.54;1663828;84;21068;-69
2022/05/16 02:37:43;;;;;;;6.47;4.17;;;;;;;10.52;66.30;100378.84;1658048;85;21065;-70
2022/05/16 02:40:10;;;;;;;;;;;;;;;10.53;66.30;100372.52;1674606;85;21022;-69
2022/05/16 02:42:37;;;;;;;8.53;5.37;;;;;;;10.53;66.31;100375.17;1657113;86;20118;-70
2022/05/16 02:45:06;;;;;;;9.27;5.33;;;;;;;10.43;66.60;100379.44;1683989;84;21045;-70
2022/05/16 02:47:35;;;;;;;11.37;5.63;;;;;;;10.39;66.66;100378.68;1678190;84;21378;-69
2022/05/16 02:50:03;;;;;;;8.57;5.67;;;;;;;10.33;66.97;100386.39;1678377;84;21063;-70
2022/05/16 02:52:32;;;;;;;10.73;5.87;;;;;;;10.31;67.00;100377.77;1678842;84;21544;-70
2022/05/16 02:55:00;;;;;;;14.50;5.87;;;;;;;10.32;67.09;100383.42;1677818;84;21039;-70
2022/05/16 02:57:32;;;;;;;9.43;5.40;;;;;;;10.52;66.82;100385.50;1678155;85;21030;-70
2022/05/16 02:59:59;;;;;;;11.93;5.80;;;;;;;10.99;65.24;100384.17;1678935;85;22103;-70
2022/05/16 03:02:27;;;;;;;8.43;5.47;;;;;;;11.66;63.26;100379.43;1660503;85;21707;-71
2022/05/16 03:04:53;;;;;;;7.03;5.50;;;;;;;12.39;61.94;100380.38;1671887;85;20953;-71
2022/05/16 03:07:19;;;;;;;;;;;;;;;13.17;58.84;100382.13;1661743;85;21442;-71
2022/05/16 03:09:47;;;;;;;7.75;4.97;;;;;;;13.93;55.99;100381.41;1659804;85;20157;-71
2022/05/16 03:12:14;;;;;;;9.93;5.45;;;;;;;14.55;53.79;100373.78;1654387;86;20998;-71
2022/05/16 03:14:41;;;;;;;7.92;5.58;;;;;;;15.15;51.88;100374.28;1646200;86;21021;-71
2022/05/16 03:17:07;;;;;;;9.28;6.17;;;;;;;15.71;49.91;100371.25;1646859;86;21494;-71
2022/05/16 03:19:35;;;;;;;13.93;5.58;;;;;;;16.26;47.43;100376.39;1646699;86;21070;-70
2022/05/16 03:22:04;;;;;;;14.30;6.42;;;;;;;16.68;46.41;100372.44;1628476;86;21046;-71
2022/05/16 03:24:31;;;;;;;10.43;5.55;;;;;;;17.18;45.71;100371.33;1646351;86;21017;-71
2022/05/16 03:26:59;;;;;;;11.38;6.28;;;;;;;17.75;43.80;100371.63;1646656;86;21545;-71
2022/05/16 03:29:26;;;;;;;10.15;5.92;;;;;;;18.21;42.19;100369.14;1646642;86;21018;-71
2022/05/16 03:31:55;;;;;;;10.98;5.30;;;;;;;18.52;41.15;100365.72;1645095;86;21160;-71
2022/05/16 03:34:21;;;;;;;9.88;6.00;;;;;;;18.76;40.42;100380.77;1667508;85;21020;-71
2022/05/16 03:36:47;;;;;;;8.20;4.75;;;;;;;19.07;39.75;100374.59;1670515;85;21688;-70
2022/05/16 03:41:58;;;;;;;9.73;5.35;;;;;;;19.41;38.68;100371.36;1660995;85;20134;-71
2022/05/16 03:44:25;;;;;;;10.03;5.53;;;;;;;19.44;38.38;100370.07;1666924;83;21126;-71
2022/05/16 03:46:51;;;;;;;10.48;5.30;;;;;;;19.47;38.11;100368.20;1668542;84;21035;-71
2022/05/16 03:49:18;;;;;;;7.05;4.75;;;;;;;19.48;38.22;100371.21;1691765;84;21075;-70
2022/05/16 03:51:45;;;;;;;9.73;5.70;;;;;;;19.63;37.39;100363.88;1677986;84;21633;-70
2022/05/16 03:54:11;;;;;;;11.53;5.35;;;;;;;19.73;37.23;100371.34;1679525;84;21085;-71
2022/05/16 03:56:38;;;;;;;10.65;5.78;;;;;;;19.76;37.07;100373.02;1693493;83;21033;-71
2022/05/16 03:59:05;;;;;;;;;;;;;;;19.80;36.99;100370.64;1684016;83;21069;-71
2022/05/16 04:01:32;;;;;;;10.48;5.72;;;;;;;19.99;36.84;100373.33;1649141;83;20172;-71
2022/05/16 04:03:58;;;;;;;9.63;4.85;;;;;;;20.06;36.58;100368.27;1617633;86;21058;-71
2022/05/16 04:06:26;;;;;;;11.43;5.75;;;;;;;20.20;36.40;100371.70;1627675;86;21124;-71
2022/05/16 04:08:54;;;;;;;9.13;4.55;;;;;;;20.22;35.77;100374.16;1664773;85;21126;-71
2022/05/16 04:11:21;;;;;;;18.07;5.40;;;;;;;20.09;35.91;100378.05;1642488;85;22270;-71
2022/05/16 04:13:48;;;;;;;5.03;3.75;;;;;;;20.07;36.14;100372.62;1680277;83;21262;-71
2022/05/16 04:16:15;;;;;;;5.10;3.30;;;;;;;20.23;35.57;100377.17;1688840;82;21014;-72
2022/05/16 04:18:44;;;;;;;9.93;3.70;;;;;;;20.39;35.29;100371.39;1705394;83;22112;-72
2022/05/16 04:21:12;;;;;;;7.80;4.25;;;;;;;20.54;35.08;100381.59;1692032;83;21029;-70
2022/05/16 04:23:39;;;;;;;5.65;3.92;;;;;;;20.82;34.91;100379.75;1701061;82;21094;-72
2022/05/16 04:26:07;;;;;;;5.17;3.65;;;;;;;21.04;33.92;100375.09;1680263;83;21546;-71
2022/05/16 04:28:34;;;;;;;10.50;3.92;;;;;;;21.20;34.06;100380.10;1680796;83;21510;-72
2022/05/16 04:31:02;;;;;;;;;;;;;;;21.43;33.69;100374.05;1683172;83;21125;-71
2022/05/16 04:33:28;;;;;;;5.10;3.35;;;;;;;21.36;33.83;100371.55;1693735;82;20153;-71
2022/05/16 04:35:54;;;;;;;3.17;2.55;;;;;;;21.36;33.86;100367.48;1708127;83;21549;-71
2022/05/16 04:38:21;;;;;;;6.15;3.02;;;;;;;21.53;33.44;100367.36;1708147;83;21594;-71
2022/05/16 04:43:32;;;;;;;3.52;1.92;;;;;;;21.78;32.62;100362.66;1691256;83;21034;-71
2022/05/16 04:45:58;;;;;;;;;;;;;;;21.93;32.37;100368.17;1698908;83;21105;-72
2022/05/16 04:48:24;;;;;;;6.75;2.27;;;;;;;22.06;33.01;100365.53;1693476;84;20194;-72
2022/05/16 04:50:51;;;;;;;3.52;2.17;;;;;;;22.09;31.79;100369.60;1693112;84;21125;-71
2022/05/16 04:53:17;;;;;;;3.37;1.57;;;;;;;21.92;31.72;100371.95;1674784;84;21111;-72
2022/05/16 04:55:43;;;;;;;3.62;1.55;;;;;;;21.75;31.70;100369.95;1684045;84;21032;-73
2022/05/16 04:58:09;;;;;;;7.00;1.72;;;;;;;21.56;32.03;100371.73;1683656;84;21521;-72
2022/05/16 05:00:35;;;;;;;;;;;;;;;21.42;32.78;100366.46;1691440;84;21089;-71
2022/05/16 05:03:02;;;;;;;1.77;0.50;;;;;;;21.67;32.45;100366.39;1725505;82;20140;-71
2022/05/16 05:05:28;;;;;;;1.47;0.90;;;;;;;21.83;31.60;100366.77;1738302;82;22201;-72
2022/05/16 05:07:54;;;;;;;1.20;0.53;;;;;;;21.85;31.62;100366.48;1738568;82;21094;-71
2022/05/16 05:16:14;;;;;;;1.60;0.35;;;;;;;21.69;32.09;100364.23;1734026;82;21073;-73
2022/05/16 05:18:42;;;;;;;0.95;0.25;;;;;;;22.06;31.39;100364.17;1729161;82;21058;-72
2022/05/16 05:21:09;;;;;;;2.00;1.27;;;;;;;22.07;30.98;100364.98;1721214;82;20984;-72
2022/05/16 05:23:38;;;;;;;1.95;0.40;;;;;;;21.97;30.63;100366.56;1722681;82;21142;-72
2022/05/16 05:26:04;;;;;;;2.30;0.30;;;;;;;21.61;31.08;100347.10;1709000;82;21101;-72
2022/05/16 05:28:31;;;;;;;2.15;0.30;;;;;;;21.53;31.94;100365.49;1736484;82;21062;-70
2022/05/16 05:30:57;;;;;;;0.75;0.20;;;;;;;21.45;31.57;100364.60;1738148;82;21022;-73
2022/05/16 05:33:23;;;;;;;0.90;0.13;;;;;;;21.04;31.87;100364.26;1738559;82;21149;-72
2022/05/16 05:35:50;;;;;;;2.00;0.30;;;;;;;20.57;32.83;100362.94;1720498;82;21110;-72
2022/05/16 05:38:16;;;;;;;;;;;;;;;20.34;33.04;100368.11;1731326;82;21057;-71
2022/05/16 05:40:43;;;;;;;;;;;;;;;20.13;33.40;100364.30;1720069;82;20135;-73
2022/05/16 05:43:09;;;;;;;1.85;0.20;;;;;;;19.80;34.55;100367.39;1719921;82;20185;-70
2022/05/16 05:45:37;;;;;;;1.80;0.20;;;;;;;19.52;34.66;100362.08;1736444;82;21031;-71
2022/05/16 05:48:05;;;;;;;2.17;0.20;;;;;;;19.34;34.89;100367.19;1738619;82;21058;-72
2022/05/16 05:50:32;;;;;;;2.87;0.17;;;;;;;19.18;35.17;100363.43;1738250;82;21522;-72
2022/05/16 05:52:59;;;;;;;2.58;0.68;;;;;;;18.96;35.47;100367.37;1737978;82;21538;-70
2022/05/16 05:55:25;;;;;;;;;;;;;;;18.72;36.20;100370.13;1715357;82;21043;-70
2022/05/16 05:57:53;;;;;;;4.78;0.40;;;;;;;18.48;36.12;100374.29;1718275;82;20092;-70
2022/05/16 06:00:21;;;;;;;1.20;0.20;;;;;;;18.20;36.37;100371.56;1726705;82;21105;-70
2022/05/16 06:02:48;;;;;;;1.00;0.30;;;;;;;17.98;36.51;100372.16;1725506;82;21080;-73
2022/05/16 06:05:17;;;;;;;1.10;0.20;;;;;;;17.75;37.15;100369.47;1738396;82;20979;-71
2022/05/16 06:07:44;;;;;;;4.03;0.40;;;;;;;17.63;37.63;100370.29;1738448;82;21018;-73
2022/05/16 06:10:12;;;;;;;0.88;0.30;;;;;;;17.53;38.27;100365.99;1738457;82;21279;-71
2022/05/16 06:12:39;;;;;;;1.20;0.35;;;;;;;17.40;37.83;100371.07;1738357;82;21137;-72
2022/05/16 06:15:08;;;;;;;2.45;0.20;;;;;;;17.26;37.86;100375.05;1738808;82;21059;-72
2022/05/16 06:17:36;;;;;;;2.85;0.68;;;;;;;17.16;38.15;100370.23;1738737;82;21034;-71
2022/05/16 06:20:05;;;;;;;1.35;0.30;;;;;;;17.05;38.07;100369.69;1738946;82;21073;-72
2022/05/16 06:22:34;;;;;;;0.20;0.10;;;;;;;17.04;38.16;100371.53;1738652;82;21133;-71
2022/05/16 06:27:49;;;;;;;0.88;0.20;;;;;;;17.16;38.27;100371.58;1722462;82;21066;-71
2022/05/16 06:30:19;;;;;;;3.72;0.20;;;;;;;17.16;38.27;100371.58;1727075;82;21045;-72
2022/05/16 06:32:44;;;;;;;1.15;0.40;;;;;;;17.23;39.26;100372.28;1712226;82;21059;-71
2022/05/16 06:35:10;;;;;;;1.00;0.20;;;;;;;17.29;39.87;100370.03;1715793;82;21024;-70
2022/05/16 06:37:36;;;;;;;1.95;0.20;;;;;;;17.30;38.01;100371.65;1681186;84;21048;-71
2022/05/16 06:40:05;;;;;;;1.65;0.28;;;;;;;17.28;38.21;100371.59;1658772;85;21150;-71
2022/05/16 06:42:31;;;;;;;0.93;0.20;;;;;;;17.34;38.08;100371.20;1643192;86;21370;-72
2022/05/16 06:44:58;;;;;;;0.98;0.33;;;;;;;17.34;38.08;100371.20;1675572;85;21050;-71
2022/05/16 06:47:25;;;;;;;;;;;;;;;17.36;37.65;100366.39;1663686;85;21186;-71
2022/05/16 06:49:51;;;;;;;1.55;0.20;;;;;;;17.45;38.52;100369.05;1655058;85;20215;-72
2022/05/16 06:52:20;;;;;;;0.47;0.10;;;;;;;17.54;37.64;100369.00;1673664;85;21118;-71
2022/05/16 06:54:46;;;;;;;1.05;0.10;;;;;;;17.64;37.07;100364.36;1667433;85;21090;-71
2022/05/16 06:57:13;;;;;;;0.15;0.10;;;;;;;17.74;36.17;100357.03;1694993;83;21542;-71
2022/05/16 06:59:40;;;;;;;2.15;0.13;;;;;;;17.74;36.52;100361.89;1711085;84;21047;-71
2022/05/16 07:02:07;;;;;;;3.92;0.10;;;;;;;17.72;36.83;100358.61;1699164;84;21588;-71
2022/05/16 07:04:36;;;;;;;6.45;0.13;;;;;;;17.79;37.01;100362.02;1714629;84;21582;-72
2022/05/16 07:07:04;;;;;;;3.12;0.20;;;;;;;18.07;36.23;100353.22;1714571;84;21599;-72
2022/05/16 07:09:31;;;;;;;1.10;0.20;;;;;;;18.49;35.97;100352.16;1714640;84;21063;-71
2022/05/16 07:11:57;;;;;;;;;;;;;;;18.91;34.79;100349.71;1706063;84;21062;-73
2022/05/16 07:14:24;;;;;;;2.15;0.10;;;;;;;19.19;34.35;100342.92;1707170;83;20109;-73
2022/05/16 07:16:51;;;;;;;0.78;0.20;;;;;;;19.32;33.81;100340.94;1715453;84;21098;-73
2022/05/16 07:19:17;;;;;;;1.05;0.20;;;;;;;19.36;32.78;100338.84;1714527;83;20979;-73
2022/05/16 07:21:43;;;;;;;0.10;0.10;;;;;;;19.50;32.85;100336.64;1686401;84;21058;-74
2022/05/16 07:24:09;;;;;;;1.45;0.20;;;;;;;19.65;32.72;100341.45;1706642;84;21115;-72
2022/05/16 07:29:22;;;;;;;0.68;0.10;;;;;;;19.58;32.81;100337.56;1686998;83;21105;-72
2022/05/16 07:31:51;;;;;;;1.15;0.20;;;;;;;19.58;32.40;100340.27;1686403;84;21017;-73
2022/05/16 07:34:16;;;;;;;0.28;0.10;;;;;;;19.43;32.85;100331.93;1688686;83;21058;-72
2022/05/16 07:36:41;;;;;;;0.80;0.17;;;;;;;19.23;33.70;100323.80;1713905;82;21018;-73
2022/05/16 07:39:07;;;;;;;;;;;;;;;19.14;33.55;100324.46;1707501;84;21586;-73
2022/05/16 07:41:34;;;;;;;1.62;0.03;;;;;;;19.15;32.26;100329.59;1714204;84;20136;-72
2022/05/16 07:44:00;;;;;;;0.85;0.10;;;;;;;19.08;32.73;100339.77;1715089;84;21948;-72
2022/05/16 07:46:26;;;;;;;0.20;0.10;;;;;;;19.11;32.94;100336.56;1715333;84;21078;-70
2022/05/16 07:48:53;;;;;;;1.85;0.45;;;;;;;19.03;32.85;100327.52;1714352;84;21118;-72
2022/05/16 07:51:18;;;;;;;;;;;;;;;18.89;32.70;100339.14;1717307;84;21046;-71
2022/05/16 07:53:45;;;;;;;1.05;0.10;;;;;;;18.71;32.78;100333.41;1714530;84;20222;-72
2022/05/16 07:56:11;;;;;;;;;;;;;;;18.60;33.11;100331.05;1716977;84;21113;-70
2022/05/16 07:58:37;;;;;;;1.35;0.05;;;;;;;18.68;33.49;100325.79;1714793;83;20102;-70
2022/05/16 08:01:03;;;;;;;0.33;0.10;;;;;;;18.74;32.90;100325.34;1714709;84;21058;-70
2022/05/16 08:03:31;;;;;;;1.80;0.20;;;;;;;18.81;32.60;100328.75;1714783;84;20983;-70
2022/05/16 08:05:59;;;;;;;1.50;0.10;;;;;;;18.79;32.79;100324.09;1713316;84;21014;-72
2022/05/16 08:11:14;;;;;;;0.68;0.10;;;;;;;18.76;33.07;100313.27;1720676;82;21054;-72
2022/05/16 08:13:43;;;;;;;0.40;0.10;;;;;;;18.80;32.85;100319.84;1715135;84;21034;-71
2022/05/16 08:16:10;;;;;;;2.87;0.20;;;;;;;18.78;32.82;100317.05;1714858;84;20992;-70
2022/05/16 08:18:36;;;;;;;0.90;0.10;;;;;;;18.68;33.14;100317.18;1697588;83;21158;-70
2022/05/16 08:21:03;;;;;;;0.10;0.00;;;;;;;18.63;33.33;100322.48;1705819;82;21082;-71
2022/05/16 08:23:31;;;;;;;0.20;0.10;;;;;;;18.64;33.38;100320.59;1720336;83;22164;-70
2022/05/16 08:26:01;;;;;;;3.30;0.20;;;;;;;18.64;33.09;100326.80;1706473;83;21034;-71
2022/05/16 08:28:27;;;;;;;8.48;0.33;;;;;;;18.51;33.45;100324.94;1705844;84;21010;-70
2022/05/16 08:30:53;;;;;;;1.25;0.10;;;;;;;18.37;33.70;100326.57;1683451;84;21498;-71
2022/05/16 08:33:21;;;;;;;1.25;0.10;;;;;;;18.37;33.83;100325.22;1694330;84;21582;-71
2022/05/16 08:39:52;;;;;;;0.50;0.10;;;;;;;18.47;33.56;100328.64;1722883;83;21179;-71
2022/05/16 08:41:07;;;;;;;3.08;0.30;;;;;;;18.70;32.17;100309.35;1708348;84;21074;-70
2022/05/16 08:43:50;;;;;;;2.65;0.50;;;;;;;18.77;31.93;100316.23;1714941;84;21079;-71
2022/05/16 08:46:47;;;;;;;1.85;0.53;;;;;;;18.78;31.80;100316.53;1695630;84;21058;-69
2022/05/16 08:49:39;;;;;;;2.65;0.60;;;;;;;18.62;32.08;100322.71;1714585;83;21103;-71
2022/05/16 08:53:09;;;;;;;0.98;0.55;;;;;;;18.56;32.53;100317.75;1787354;79;23279;-71
2022/05/16 08:55:40;;;;;;;4.42;0.40;;;;;;;18.51;32.57;100315.48;1762789;79;21068;-71
2022/05/16 08:58:41;;;;;;;2.67;0.30;;;;;;;18.56;32.74;100326.39;1783362;79;20986;-73
2022/05/16 09:01:24;;;;;;;1.92;0.30;;;;;;;18.55;33.06;100335.53;1766428;80;21089;-71
2022/05/16 09:03:56;;;;;;;0.60;0.20;;;;;;;18.39;33.12;100331.20;1714060;83;21697;-72
2022/05/16 09:06:38;;;;;;;1.35;0.25;;;;;;;18.33;33.63;100319.18;1734378;83;21026;-72
2022/05/16 09:09:19;;;;;;;2.10;0.20;;;;;;;18.40;33.12;100330.66;1714502;83;21105;-72
2022/05/16 09:12:08;;;;;;;0.53;0.10;;;;;;;18.43;33.40;100336.94;1732636;83;21038;-71
2022/05/16 09:15:04;;;;;;;0.45;0.20;;;;;;;18.43;33.35;100325.60;1712308;83;21114;-72
2022/05/16 09:18:01;;;;;;;0.85;0.10;;;;;;;18.37;33.14;100329.27;1650103;86;21077;-70
2022/05/16 09:21:09;;;;;;;2.08;0.10;;;;;;;18.37;33.20;100330.62;1724721;83;21030;-71
2022/05/16 09:24:07;;;;;;;0.30;0.10;;;;;;;18.44;32.34;100315.62;1639124;84;21156;-72
2022/05/16 09:26:50;;;;;;;3.58;0.40;;;;;;;18.53;32.57;100322.81;1712139;83;21038;-72
2022/05/16 09:29:39;;;;;;;1.00;0.10;;;;;;;18.62;32.63;100323.52;1712613;83;21014;-71
2022/05/16 09:32:33;;;;;;;1.60;0.20;;;;;;;18.40;32.57;100278.03;1731930;83;21608;-70
2022/05/16 09:35:00;;;;;;;0.20;0.10;;;;;;;18.75;32.20;100319.71;1724465;83;21138;-72
2022/05/16 09:37:26;;;;;;;3.30;0.10;;;;;;;18.71;31.68;100325.85;1721991;83;21014;-71
2022/05/16 09:39:53;;;;;;;;;;;;;;;18.68;31.40;100306.89;1706717;82;21110;-70
2022/05/16 09:42:26;;;;;;;;;;;;;;;18.67;30.75;100312.02;1734706;83;20264;-72
2022/05/16 09:45:04;;;;;;;1.87;0.20;;;;;;;18.64;30.34;100311.14;1712701;83;20516;-71
2022/05/16 09:47:37;;;;;;;3.40;0.10;;;;;;;18.61;29.32;100309.75;1715367;83;21045;-71
2022/05/16 09:50:14;;;;;;;0.40;0.10;;;;;;;18.58;29.76;100306.72;1730788;83;21919;-71
2022/05/16 09:52:46;;;;;;;;;;;;;;;18.52;30.22;100303.11;1706441;83;21132;-71
2022/05/16 09:55:35;;;;;;;0.23;0.10;;;;;;;18.42;30.61;100317.74;1706909;83;20157;-71
2022/05/16 09:58:28;;;;;;;1.35;0.10;;;;;;;18.35;30.72;100327.88;1731983;83;21065;-71
2022/05/16 10:01:03;;;;;;;0.50;0.10;;;;;;;18.34;30.69;100326.23;1733187;83;21026;-71
2022/05/16 10:03:48;;;;;;;1.30;0.10;;;;;;;18.37;30.63;100317.66;1722699;83;21826;-72
2022/05/16 10:06:36;;;;;;;0.55;0.08;;;;;;;18.46;29.99;100319.73;1704399;83;21006;-73
2022/05/16 10:09:10;;;;;;;0.30;0.10;;;;;;;18.43;30.27;100320.20;1703737;84;21459;-72
2022/05/16 10:11:38;;;;;;;1.07;0.10;;;;;;;18.42;30.52;100317.74;1706507;83;21049;-71
2022/05/16 10:14:06;;;;;;;0.88;0.10;;;;;;;18.46;30.88;100316.23;1720013;83;21121;-72
2022/05/16 10:16:34;;;;;;;4.17;0.20;;;;;;;18.38;31.25;100302.56;1700791;83;21117;-72
2022/05/16 10:19:10;;;;;;;1.42;0.25;;;;;;;18.40;31.44;100306.38;1733178;83;21045;-72
2022/05/16 10:21:42;;;;;;;1.12;0.20;;;;;;;18.46;31.44;100314.87;1720508;83;20978;-70
2022/05/16 10:24:12;;;;;;;0.62;0.20;;;;;;;18.60;31.53;100305.41;1720019;83;21084;-71
2022/05/16 10:26:43;;;;;;;0.50;0.10;;;;;;;18.73;31.33;100301.59;1725616;83;21120;-71
2022/05/16 10:29:17;;;;;;;1.12;0.20;;;;;;;18.78;30.94;100300.84;1710277;83;21039;-70
2022/05/16 10:34:50;;;;;;;0.72;0.10;;;;;;;18.77;30.46;100312.19;1706790;83;21068;-71
2022/05/16 10:37:17;;;;;;;0.72;0.10;;;;;;;18.73;30.49;100302.94;1731868;83;21391;-71
2022/05/16 10:39:52;;;;;;;0.53;0.20;;;;;;;18.73;30.70;100303.48;1714923;83;21036;-72
2022/05/16 10:42:24;;;;;;;0.75;0.20;;;;;;;18.71;30.78;100314.52;1671898;84;21057;-71
2022/05/16 10:45:05;;;;;;;1.85;0.20;;;;;;;18.68;30.94;100312.28;1672316;84;21152;-71
2022/05/16 10:47:49;;;;;;;0.47;0.20;;;;;;;18.68;30.88;100313.64;1643679;86;21038;-70
2022/05/16 10:50:30;;;;;;;1.57;0.37;;;;;;;18.78;30.43;100298.98;1696875;84;21098;-72
2022/05/16 10:53:20;;;;;;;3.00;0.82;;;;;;;18.90;30.37;100301.64;1671450;84;21150;-72
2022/05/16 10:56:20;;;;;;;0.33;0.10;;;;;;;19.02;30.48;100301.05;1631544;86;21211;-71
2022/05/16 10:59:12;;;;;;;1.92;0.20;;;;;;;19.18;30.34;100296.69;1708520;83;21539;-71
2022/05/16 11:01:56;;;;;;;3.75;0.30;;;;;;;19.32;30.41;100298.52;1743434;80;21478;-71
2022/05/16 11:04:46;;;;;;;0.80;0.20;;;;;;;19.26;30.00;100298.16;1763848;80;21459;-72
2022/05/16 11:07:46;;;;;;;0.98;0.10;;;;;;;19.06;30.33;100287.84;1748768;80;21499;-73
2022/05/16 11:10:27;;;;;;;0.40;0.20;;;;;;;19.02;30.11;100278.59;1753794;80;21051;-72
2022/05/16 11:13:05;;;;;;;0.72;0.10;;;;;;;19.01;29.72;100282.38;1773724;80;20982;-72
2022/05/16 11:15:37;;;;;;;0.37;0.10;;;;;;;19.03;29.87;100266.74;1753465;80;21009;-70
2022/05/16 11:18:24;;;;;;;1.52;0.57;;;;;;;19.11;29.62;100279.02;1758909;80;21339;-71
2022/05/16 11:21:18;;;;;;;2.35;0.30;;;;;;;19.04;29.35;100284.06;1763848;80;21133;-71
2022/05/16 11:24:31;;;;;;;0.50;0.20;;;;;;;18.99;29.90;100279.11;1723827;81;21098;-71
2022/05/16 11:27:12;;;;;;;2.47;0.30;;;;;;;19.02;29.72;100277.25;1711250;82;21575;-70
2022/05/16 11:30:33;;;;;;;1.42;0.20;;;;;;;19.20;29.62;100280.23;1730376;82;21088;-71
2022/05/16 11:33:14;;;;;;;1.75;0.30;;;;;;;19.40;29.36;100272.95;1713286;82;21495;-70
2022/05/16 11:35:49;;;;;;;5.75;0.57;;;;;;;19.49;29.39;100275.52;1715799;82;21096;-72
2022/05/16 11:38:42;;;;;;;3.85;0.60;;;;;;;19.44;29.45;100266.81;1710445;82;21075;-71
2022/05/16 11:41:23;;;;;;;2.85;0.57;;;;;;;19.42;29.74;100275.70;1724271;82;21079;-71
2022/05/16 11:44:09;;;;;;;4.67;1.10;;;;;;;19.25;29.83;100275.73;1739809;82;21080;-71
2022/05/16 11:46:42;;;;;;;1.87;0.50;;;;;;;18.99;30.17;100274.52;1739119;82;21028;-71
2022/05/16 11:49:29;;;;;;;1.80;0.62;;;;;;;18.78;30.61;100273.84;1704964;82;21698;-71
2022/05/16 11:52:07;;;;;;;4.37;0.85;;;;;;;18.68;30.42;100269.09;1712966;82;21107;-71
2022/05/16 11:54:39;;;;;;;2.95;0.57;;;;;;;18.68;30.53;100267.23;1704032;82;21023;-70
2022/05/16 12:03:07;;;;;;;0.85;0.30;;;;;;;18.83;29.90;100259.92;1740500;82;21098;-70
2022/05/16 12:05:45;;;;;;;2.05;0.30;;;;;;;18.88;29.47;100261.91;1720214;82;21462;-71
2022/05/16 12:08:27;;;;;;;5.92;0.30;;;;;;;18.85;29.58;100256.48;1710913;82;21274;-70
2022/05/16 12:11:04;;;;;;;3.95;0.40;;;;;;;18.84;29.73;100252.12;1710966;82;21521;-72
2022/05/16 12:13:39;;;;;;;3.00;0.50;;;;;;;18.84;30.04;100251.31;1709894;82;21126;-70
2022/05/16 12:16:19;;;;;;;0.30;0.20;;;;;;;18.82;30.10;100243.45;1721341;82;20999;-71
2022/05/16 12:19:11;;;;;;;2.37;0.10;;;;;;;18.91;29.98;100245.73;1719992;82;21060;-72
2022/05/16 12:21:39;;;;;;;1.02;0.10;;;;;;;18.96;30.14;100245.28;1733605;82;21066;-72
2022/05/16 12:24:28;;;;;;;2.70;0.20;;;;;;;19.08;30.00;100243.87;1727475;82;21111;-71
2022/05/16 12:27:27;;;;;;;2.40;0.40;;;;;;;19.11;29.90;100242.00;1730860;82;21071;-72
2022/05/16 12:29:58;;;;;;;5.50;0.37;;;;;;;19.07;29.37;100242.22;1734088;82;21027;-71